createdAt,value
2019-03-28T00:01:19.886Z,20.60
2019-03-28T00:03:48.148Z,20.57
2019-03-28T00:06:16.486Z,21.87
2019-03-28T00:08:44.694Z,21.90
2019-03-28T00:11:13.547Z,20.52
2019-03-28T00:13:41.803Z,21.15
2019-03-28T00:16:10.083Z,22.48
2019-03-28T00:18:38.342Z,21.93
2019-03-28T00:21:06.627Z,22.98
2019-03-28T00:23:36.528Z,22.17
2019-03-28T00:26:04.816Z,23.80
2019-03-28T00:28:33.073Z,24.23
2019-03-28T00:31:01.350Z,24.85
2019-03-28T00:33:29.611Z,23.65
2019-03-28T00:35:57.896Z,23.18
2019-03-28T00:38:26.156Z,24.23
2019-03-28T00:40:55.243Z,24.98
2019-03-28T00:43:24.254Z,24.90
2019-03-28T00:45:53.067Z,26.17
2019-03-28T00:48:21.334Z,24.63
2019-03-28T00:50:49.610Z,25.23
2019-03-28T00:53:17.878Z,27.93
2019-03-28T00:55:46.491Z,25.92
2019-03-28T00:58:14.746Z,26.05
2019-03-28T01:00:43.033Z,28.77
2019-03-28T01:03:11.391Z,30.17
2019-03-28T01:05:39.653Z,28.87
2019-03-28T01:08:07.915Z,29.85
2019-03-28T01:10:36.200Z,29.65
2019-03-28T01:13:04.458Z,29.42
2019-03-28T01:15:33.409Z,28.25
2019-03-28T01:18:02.535Z,28.67
2019-03-28T01:20:30.815Z,30.70
2019-03-28T01:22:59.076Z,30.20
2019-03-28T01:25:27.536Z,30.50
2019-03-28T01:27:55.894Z,29.85
2019-03-28T01:30:24.180Z,28.17
2019-03-28T01:32:53.268Z,29.55
2019-03-28T01:35:21.670Z,28.67
2019-03-28T01:37:49.927Z,28.77
2019-03-28T01:40:18.187Z,30.30
2019-03-28T01:42:46.471Z,30.77
2019-03-28T01:45:15.499Z,31.40
2019-03-28T01:47:43.779Z,30.15
2019-03-28T01:50:12.042Z,30.70
2019-03-28T01:52:40.322Z,31.27
2019-03-28T01:55:08.586Z,32.13
2019-03-28T01:57:36.881Z,29.23
2019-03-28T02:00:07.695Z,28.47
2019-03-28T02:02:38.757Z,31.27
2019-03-28T02:05:07.888Z,31.15
2019-03-28T02:07:36.166Z,30.32
2019-03-28T02:10:05.368Z,30.32
2019-03-28T02:12:33.653Z,30.57
2019-03-28T02:15:01.915Z,26.85
2019-03-28T02:17:30.962Z,26.05
2019-03-28T02:19:59.225Z,26.87
2019-03-28T02:22:27.508Z,27.85
2019-03-28T02:24:56.539Z,26.85
2019-03-28T02:27:25.873Z,25.02
2019-03-28T02:29:54.372Z,26.00
2019-03-28T02:32:22.728Z,25.17
2019-03-28T02:34:51.061Z,26.45
2019-03-28T02:37:19.345Z,28.27
2019-03-28T02:39:47.599Z,28.00
2019-03-28T02:42:15.879Z,28.87
2019-03-28T02:44:44.134Z,26.93
2019-03-28T02:47:12.419Z,28.32
2019-03-28T02:49:40.945Z,25.85
2019-03-28T02:52:09.790Z,27.65
2019-03-28T02:54:38.048Z,26.80
2019-03-28T02:57:07.695Z,26.75
2019-03-28T02:59:36.473Z,26.80
2019-03-28T03:02:04.819Z,27.55
2019-03-28T03:04:33.091Z,27.15
2019-03-28T03:07:01.365Z,24.90
2019-03-28T03:09:29.618Z,25.80
2019-03-28T03:11:57.905Z,25.25
2019-03-28T03:14:26.169Z,23.92
2019-03-28T03:16:54.450Z,26.27
2019-03-28T03:19:22.714Z,26.50
2019-03-28T03:21:50.986Z,24.60
2019-03-28T03:24:19.249Z,22.87
2019-03-28T03:26:47.539Z,25.52
2019-03-28T03:29:16.904Z,25.15
2019-03-28T03:31:45.204Z,27.40
2019-03-28T03:34:13.463Z,25.85
2019-03-28T03:36:41.742Z,27.87
2019-03-28T03:39:10.568Z,26.90
2019-03-28T03:41:38.866Z,26.62
2019-03-28T03:44:07.113Z,25.80
2019-03-28T03:46:36.169Z,26.48
2019-03-28T03:49:04.843Z,26.97
2019-03-28T03:51:33.552Z,27.37
2019-03-28T03:54:01.817Z,26.02
2019-03-28T03:56:30.076Z,26.42
2019-03-28T03:58:58.941Z,28.32
2019-03-28T04:01:27.479Z,26.97
2019-03-28T04:03:56.544Z,28.98
2019-03-28T04:06:25.832Z,29.32
2019-03-28T04:08:54.139Z,28.92
2019-03-28T04:11:22.370Z,29.05
2019-03-28T04:13:50.677Z,30.70
2019-03-28T04:16:18.940Z,29.35
2019-03-28T04:18:47.995Z,29.10
2019-03-28T04:21:17.604Z,29.87
2019-03-28T04:23:45.982Z,27.82
2019-03-28T04:26:14.819Z,28.95
2019-03-28T04:28:43.092Z,30.25
2019-03-28T04:31:12.688Z,32.35
2019-03-28T04:33:40.973Z,30.45
2019-03-28T04:36:09.226Z,30.23
2019-03-28T04:38:38.614Z,29.57
2019-03-28T04:41:06.869Z,29.87
2019-03-28T04:43:35.149Z,27.32
2019-03-28T04:46:03.405Z,27.73
2019-03-28T04:48:31.691Z,30.75
2019-03-28T04:51:01.343Z,29.20
2019-03-28T04:53:29.820Z,31.95
2019-03-28T04:55:58.022Z,31.85
2019-03-28T04:58:26.306Z,27.90
2019-03-28T05:00:54.568Z,28.35
2019-03-28T05:03:23.486Z,28.35
2019-03-28T05:05:51.788Z,28.17
2019-03-28T05:08:20.392Z,28.38
2019-03-28T05:10:48.645Z,29.12
2019-03-28T05:13:17.803Z,33.00
2019-03-28T05:15:46.062Z,29.87
2019-03-28T05:18:14.629Z,29.42
2019-03-28T05:20:43.657Z,26.55
2019-03-28T05:23:11.939Z,26.70
2019-03-28T05:25:40.195Z,27.70
2019-03-28T05:28:08.477Z,28.38
2019-03-28T05:30:36.745Z,27.25
2019-03-28T05:33:05.023Z,27.37
2019-03-28T05:35:33.285Z,26.50
2019-03-28T05:38:02.393Z,25.37
2019-03-28T05:40:31.788Z,26.50
2019-03-28T05:43:00.814Z,27.65
2019-03-28T05:45:29.104Z,27.50
2019-03-28T05:48:00.209Z,30.23
2019-03-28T05:50:27.366Z,29.32
2019-03-28T05:52:55.622Z,29.32
2019-03-28T05:55:23.906Z,28.77
2019-03-28T05:57:52.162Z,29.02
2019-03-28T06:00:20.450Z,30.02
2019-03-28T06:02:48.707Z,31.57
2019-03-28T06:05:17.763Z,31.62
2019-03-28T06:07:46.022Z,29.27
2019-03-28T06:10:16.328Z,30.20
2019-03-28T06:12:44.801Z,29.52
2019-03-28T06:15:13.511Z,29.12
2019-03-28T06:17:41.766Z,31.00
2019-03-28T06:20:10.046Z,29.63
2019-03-28T06:22:38.307Z,31.82
2019-03-28T06:25:06.607Z,31.27
2019-03-28T06:27:35.779Z,28.98
2019-03-28T06:30:06.460Z,26.52
2019-03-28T06:32:42.846Z,26.65
2019-03-28T06:35:05.592Z,26.30
2019-03-28T06:37:33.850Z,27.30
2019-03-28T06:40:02.431Z,26.85
2019-03-28T06:42:30.694Z,26.82
2019-03-28T06:44:59.746Z,26.02
2019-03-28T06:47:28.008Z,27.80
2019-03-28T06:49:56.666Z,26.73
2019-03-28T06:52:25.593Z,28.98
2019-03-28T06:54:54.344Z,26.45
2019-03-28T06:57:23.547Z,27.65
2019-03-28T06:59:51.826Z,27.37
2019-03-28T07:02:22.089Z,26.55
2019-03-28T07:04:51.191Z,26.35
2019-03-28T07:07:19.728Z,21.93
2019-03-28T07:09:48.011Z,20.85
2019-03-28T07:12:16.274Z,20.17
2019-03-28T07:14:44.555Z,20.30
2019-03-28T07:17:12.811Z,18.00
2019-03-28T07:19:41.671Z,14.98
2019-03-28T07:22:10.382Z,18.80
2019-03-28T07:24:38.769Z,18.70
2019-03-28T07:27:07.032Z,19.90
2019-03-28T07:29:35.320Z,18.02
2019-03-28T07:32:03.580Z,14.83
2019-03-28T07:34:32.931Z,16.32
2019-03-28T07:37:01.193Z,17.10
2019-03-28T07:39:29.451Z,17.50
2019-03-28T07:41:58.303Z,19.80
2019-03-28T07:44:26.559Z,18.37
2019-03-28T07:46:54.839Z,19.62
2019-03-28T07:49:23.097Z,18.92
2019-03-28T07:51:52.155Z,19.48
2019-03-28T07:54:20.398Z,21.20
2019-03-28T07:56:49.418Z,20.80
2019-03-28T07:59:17.721Z,20.88
2019-03-28T08:01:45.999Z,20.90
2019-03-28T08:04:14.264Z,18.05
2019-03-28T08:06:49.559Z,18.48
2019-03-28T08:09:12.535Z,18.27
2019-03-28T08:11:40.820Z,17.50
2019-03-28T08:14:09.078Z,15.32
2019-03-28T08:16:37.364Z,13.43
2019-03-28T08:19:07.997Z,12.88
2019-03-28T08:21:35.644Z,13.55
2019-03-28T08:24:04.062Z,11.75
2019-03-28T08:26:32.910Z,13.50
2019-03-28T08:29:01.259Z,14.00
2019-03-28T08:31:29.528Z,14.80
2019-03-28T08:33:57.787Z,13.58
2019-03-28T08:36:26.067Z,14.60
2019-03-28T08:38:54.327Z,14.25
2019-03-28T08:41:22.608Z,10.68
2019-03-28T08:43:50.866Z,10.43
2019-03-28T08:46:19.151Z,10.08
2019-03-28T08:48:48.527Z,11.75
2019-03-28T08:51:16.816Z,11.50
2019-03-28T08:53:45.072Z,10.68
2019-03-28T08:56:13.837Z,11.70
2019-03-28T08:58:42.097Z,11.93
2019-03-28T09:01:10.381Z,11.90
2019-03-28T09:03:38.660Z,11.48
2019-03-28T09:06:07.495Z,11.55
2019-03-28T09:08:36.429Z,12.50
2019-03-28T09:11:05.079Z,13.83
2019-03-28T09:13:33.336Z,11.63
2019-03-28T09:16:02.186Z,10.80
2019-03-28T09:18:30.448Z,10.13
2019-03-28T09:20:58.744Z,10.13
2019-03-28T09:23:26.993Z,8.78
2019-03-28T09:25:55.275Z,7.10
2019-03-28T09:28:23.537Z,8.10
2019-03-28T09:30:51.821Z,7.45
2019-03-28T09:33:20.082Z,7.00
2019-03-28T09:35:48.375Z,8.10
2019-03-28T09:38:16.639Z,7.53
2019-03-28T09:40:45.450Z,7.70
2019-03-28T09:43:13.739Z,8.00
2019-03-28T09:45:42.001Z,7.25
2019-03-28T09:48:11.871Z,5.95
2019-03-28T09:50:40.486Z,8.90
2019-03-28T09:53:09.439Z,8.83
2019-03-28T09:55:38.472Z,7.90
2019-03-28T09:58:06.755Z,8.28
2019-03-28T10:00:35.016Z,6.45
2019-03-28T10:03:03.875Z,5.95
2019-03-28T10:05:32.136Z,6.87
2019-03-28T10:08:00.414Z,5.87
2019-03-28T10:10:28.677Z,7.58
2019-03-28T10:12:56.959Z,7.53
2019-03-28T10:15:25.226Z,7.20
2019-03-28T10:17:54.872Z,8.05
2019-03-28T10:20:23.411Z,7.80
2019-03-28T10:22:51.692Z,6.85
2019-03-28T10:25:19.951Z,6.12
2019-03-28T10:27:48.902Z,6.20
2019-03-28T10:30:17.159Z,6.17
2019-03-28T10:32:45.433Z,5.62
2019-03-28T10:35:16.946Z,5.37
2019-03-28T10:37:45.223Z,5.92
2019-03-28T10:40:14.051Z,5.80
2019-03-28T10:42:42.331Z,6.00
2019-03-28T10:45:11.160Z,6.67
2019-03-28T10:47:39.445Z,6.33
2019-03-28T10:50:07.699Z,5.42
2019-03-28T10:52:35.979Z,5.42
2019-03-28T10:55:04.862Z,5.03
2019-03-28T10:57:33.138Z,4.55
2019-03-28T11:00:01.416Z,3.90
2019-03-28T11:02:29.684Z,3.92
2019-03-28T11:04:57.931Z,3.77
2019-03-28T11:07:26.209Z,4.05
2019-03-28T11:09:54.462Z,3.62
2019-03-28T11:12:22.845Z,3.12
2019-03-28T11:14:51.074Z,3.30
2019-03-28T11:17:19.429Z,3.25
2019-03-28T11:19:47.683Z,3.30
2019-03-28T11:22:15.962Z,3.12
2019-03-28T11:24:46.319Z,3.12
2019-03-28T11:27:14.232Z,3.62
2019-03-28T11:29:42.481Z,3.33
2019-03-28T11:32:10.741Z,3.47
2019-03-28T11:34:40.337Z,2.95
2019-03-28T11:39:39.437Z,3.87
2019-03-28T11:42:07.693Z,3.60
2019-03-28T11:42:35.505Z,3.98
2019-03-28T11:44:35.980Z,4.25
2019-03-28T11:47:04.229Z,4.03
2019-03-28T11:49:32.505Z,4.03
2019-03-28T11:52:00.764Z,3.95
2019-03-28T11:54:29.038Z,3.65
2019-03-28T11:56:57.294Z,3.58
2019-03-28T11:59:26.347Z,3.65
2019-03-28T12:02:00.492Z,3.42
2019-03-28T12:04:24.611Z,3.80
2019-03-28T12:06:52.891Z,4.03
2019-03-28T12:09:21.171Z,4.28
2019-03-28T12:11:52.669Z,3.70
2019-03-28T12:14:19.426Z,4.03
2019-03-28T12:16:47.686Z,4.20
2019-03-28T12:19:17.724Z,4.37
2019-03-28T12:21:45.946Z,4.72
2019-03-28T12:24:14.801Z,4.83
2019-03-28T12:26:43.064Z,4.58
2019-03-28T12:36:57.733Z,4.72
2019-03-28T12:39:26.013Z,5.40
2019-03-28T12:41:54.272Z,4.80
2019-03-28T12:44:22.561Z,4.92
2019-03-28T12:46:50.805Z,4.42
2019-03-28T12:49:19.087Z,4.58
2019-03-28T12:51:47.342Z,4.33
2019-03-28T12:54:15.622Z,4.12
2019-03-28T12:56:43.875Z,4.28
2019-03-28T12:59:12.474Z,4.50
2019-03-28T13:01:41.059Z,3.85
2019-03-28T13:04:09.338Z,4.35
2019-03-28T13:06:38.364Z,4.92
2019-03-28T13:09:09.830Z,4.55
2019-03-28T13:11:38.108Z,4.00
2019-03-28T13:14:06.385Z,4.60
2019-03-28T13:16:34.646Z,4.47
2019-03-28T13:19:02.922Z,4.10
2019-03-28T13:21:31.177Z,4.03
2019-03-28T13:23:59.458Z,4.20
2019-03-28T13:26:27.710Z,4.47
2019-03-28T13:28:56.030Z,4.08
2019-03-28T13:31:24.320Z,3.98
2019-03-28T13:33:52.600Z,5.00
2019-03-28T13:36:21.427Z,4.53
2019-03-28T13:38:49.697Z,3.92
2019-03-28T13:41:17.948Z,4.33
2019-03-28T13:43:46.225Z,4.75
2019-03-28T13:46:14.477Z,5.03
2019-03-28T13:48:42.734Z,4.62
2019-03-28T13:51:11.011Z,4.87
2019-03-28T13:53:40.085Z,4.65
2019-03-28T13:56:08.519Z,4.20
2019-03-28T13:58:36.784Z,5.37
2019-03-28T14:01:05.058Z,4.12
2019-03-28T14:03:33.310Z,4.10
2019-03-28T14:06:01.587Z,4.25
2019-03-28T14:08:29.843Z,3.90
2019-03-28T14:10:58.686Z,4.67
2019-03-28T14:13:26.946Z,4.83
2019-03-28T14:15:55.222Z,4.65
2019-03-28T14:18:23.472Z,4.67
2019-03-28T14:20:52.321Z,4.30
2019-03-28T14:23:20.662Z,4.40
2019-03-28T14:25:48.938Z,5.00
2019-03-28T14:28:17.198Z,4.50
2019-03-28T14:30:45.477Z,4.87
2019-03-28T14:33:15.918Z,5.87
2019-03-28T14:35:43.753Z,5.17
2019-03-28T14:38:12.015Z,6.05
2019-03-28T14:40:40.290Z,5.62
2019-03-28T14:43:10.725Z,4.45
2019-03-28T14:45:38.718Z,5.47
2019-03-28T14:48:07.151Z,4.22
2019-03-28T14:50:39.646Z,4.90
2019-03-28T14:53:07.830Z,4.58
2019-03-28T14:55:36.114Z,4.62
2019-03-28T14:58:04.711Z,4.55
2019-03-28T15:00:47.970Z,4.78
2019-03-28T15:03:25.660Z,4.42
2019-03-28T15:05:46.289Z,4.53
2019-03-28T15:08:14.546Z,4.95
2019-03-28T15:10:42.831Z,4.37
2019-03-28T15:13:11.858Z,4.60
2019-03-28T15:15:40.134Z,4.30
2019-03-28T15:18:09.169Z,4.87
2019-03-28T15:20:37.444Z,4.30
2019-03-28T15:23:05.703Z,4.00
2019-03-28T15:25:33.978Z,4.33
2019-03-28T15:28:02.239Z,3.98
2019-03-28T15:30:30.514Z,3.95
2019-03-28T15:32:58.770Z,4.50
2019-03-28T15:35:27.042Z,5.00
2019-03-28T15:37:55.296Z,4.00
2019-03-28T15:40:23.577Z,4.30
2019-03-28T15:42:51.828Z,3.85
2019-03-28T15:45:20.110Z,4.12
2019-03-28T15:47:48.360Z,3.92
2019-03-28T15:50:16.634Z,4.47
2019-03-28T15:52:44.885Z,3.72
2019-03-28T15:55:14.660Z,4.60
2019-03-28T15:57:43.302Z,4.15
2019-03-28T16:00:11.571Z,5.05
2019-03-28T16:02:39.893Z,4.25
2019-03-28T16:05:08.174Z,4.55
2019-03-28T16:07:37.203Z,4.80
2019-03-28T16:10:08.266Z,4.40
2019-03-28T16:12:36.521Z,4.80
2019-03-28T16:15:07.342Z,4.30
2019-03-28T16:17:35.596Z,4.55
2019-03-28T16:20:05.106Z,4.78
2019-03-28T16:22:33.358Z,4.67
2019-03-28T16:25:01.654Z,4.80
2019-03-28T16:27:29.902Z,4.78
2019-03-28T16:29:58.156Z,4.87
2019-03-28T16:32:26.473Z,5.08
2019-03-28T16:34:54.684Z,4.50
2019-03-28T16:37:22.970Z,5.15
2019-03-28T16:39:51.221Z,4.70
2019-03-28T16:42:19.498Z,5.12
2019-03-28T16:44:48.324Z,4.90
2019-03-28T16:47:16.598Z,5.22
2019-03-28T16:49:44.850Z,5.20
2019-03-28T16:52:15.829Z,4.87
2019-03-28T16:54:44.081Z,5.33
2019-03-28T16:57:12.930Z,6.28
2019-03-28T16:59:41.188Z,6.53
2019-03-28T17:02:09.467Z,5.97
2019-03-28T17:04:37.743Z,5.58
2019-03-28T17:07:06.878Z,6.15
2019-03-28T17:09:37.568Z,5.50
2019-03-28T17:12:05.163Z,5.80
2019-03-28T17:14:33.399Z,6.45
2019-03-28T17:17:02.243Z,6.08
2019-03-28T17:19:30.499Z,6.60
2019-03-28T17:21:58.779Z,6.95
2019-03-28T17:24:28.031Z,6.58
2019-03-28T17:26:56.402Z,7.17
2019-03-28T17:29:25.000Z,6.33
2019-03-28T17:31:53.274Z,6.62
2019-03-28T17:34:34.205Z,6.65
2019-03-28T17:36:52.369Z,6.67
2019-03-28T17:39:20.631Z,6.90
2019-03-28T17:41:50.250Z,6.05
2019-03-28T17:44:18.507Z,5.00
2019-03-28T17:46:46.786Z,7.35
2019-03-28T17:49:15.062Z,6.70
2019-03-28T17:51:43.325Z,8.23
2019-03-28T17:54:11.961Z,6.97
2019-03-28T17:56:40.429Z,7.53
2019-03-28T17:59:08.681Z,7.10
2019-03-28T18:01:36.960Z,6.83
2019-03-28T18:04:05.861Z,6.22
2019-03-28T18:06:35.418Z,6.00
2019-03-28T18:09:05.296Z,6.08
2019-03-28T18:11:33.569Z,5.40
2019-03-28T18:14:02.597Z,5.72
2019-03-28T18:16:30.870Z,6.17
2019-03-28T18:18:59.121Z,7.08
2019-03-28T18:21:27.448Z,6.53
2019-03-28T18:23:55.696Z,6.65
2019-03-28T18:26:23.949Z,5.70
2019-03-28T18:28:52.228Z,6.20
2019-03-28T18:31:21.250Z,6.22
2019-03-28T18:33:49.526Z,6.30
2019-03-28T18:36:18.548Z,5.95
2019-03-28T18:38:46.825Z,6.92
2019-03-28T18:41:15.079Z,6.45
2019-03-28T18:43:43.349Z,6.17
2019-03-28T18:46:14.752Z,6.33
2019-03-28T18:48:42.170Z,6.20
2019-03-28T18:51:11.093Z,6.30
2019-03-28T18:53:39.373Z,5.83
2019-03-28T18:56:07.621Z,6.33
2019-03-28T18:58:35.902Z,6.28
2019-03-28T19:01:04.152Z,5.75
2019-03-28T19:03:33.267Z,7.08
2019-03-28T19:06:03.151Z,6.50
2019-03-28T19:08:31.424Z,6.20
2019-03-28T19:10:59.677Z,6.78
2019-03-28T19:13:27.949Z,6.58
2019-03-28T19:15:56.200Z,6.53
2019-03-28T19:18:25.712Z,6.60
2019-03-28T19:20:54.693Z,6.67
2019-03-28T19:23:24.827Z,6.40
2019-03-28T19:25:53.167Z,6.28
2019-03-28T19:28:28.812Z,6.62
2019-03-28T19:30:51.432Z,6.83
2019-03-28T19:33:19.709Z,6.15
2019-03-28T19:35:47.962Z,6.60
2019-03-28T19:38:17.038Z,7.37
2019-03-28T19:40:45.213Z,7.28
2019-03-28T19:43:20.331Z,7.30
2019-03-28T19:45:43.471Z,7.15
2019-03-28T19:48:11.748Z,6.72
2019-03-28T19:50:40.004Z,7.60
2019-03-28T19:53:11.565Z,7.60
2019-03-28T19:55:39.885Z,8.30
2019-03-28T19:58:08.260Z,7.72
2019-03-28T20:00:36.514Z,8.38
2019-03-28T20:03:04.772Z,8.30
2019-03-28T20:05:46.434Z,8.08
2019-03-28T20:08:14.681Z,7.75
2019-03-28T20:10:33.598Z,7.20
2019-03-28T20:13:05.088Z,7.83
2019-03-28T20:15:32.431Z,7.95
2019-03-28T20:18:00.677Z,8.60
2019-03-28T20:20:28.953Z,8.00
2019-03-28T20:22:57.207Z,7.47
2019-03-28T20:25:26.253Z,7.75
2019-03-28T20:27:54.579Z,7.10
2019-03-28T20:30:24.758Z,7.53
2019-03-28T20:32:53.010Z,7.40
2019-03-28T20:35:22.022Z,7.37
2019-03-28T20:37:50.415Z,7.35
2019-03-28T20:40:19.262Z,7.05
2019-03-28T20:42:47.512Z,7.47
2019-03-28T20:45:15.958Z,8.03
2019-03-28T20:47:44.886Z,7.50
2019-03-28T20:50:13.252Z,8.13
2019-03-28T20:52:42.074Z,7.58
2019-03-28T20:55:10.360Z,7.65
2019-03-28T20:57:40.421Z,7.83
2019-03-28T21:00:09.021Z,7.97
2019-03-28T21:02:37.400Z,8.08
2019-03-28T21:05:08.597Z,8.08
2019-03-28T21:07:36.855Z,8.20
2019-03-28T21:10:06.069Z,8.70
2019-03-28T21:12:34.322Z,8.35
2019-03-28T21:15:02.603Z,8.33
2019-03-28T21:17:32.222Z,7.17
2019-03-28T21:20:00.861Z,7.75
2019-03-28T21:22:29.120Z,8.48
2019-03-28T21:24:57.385Z,8.78
2019-03-28T21:27:25.644Z,9.13
2019-03-28T21:29:53.917Z,9.13
2019-03-28T21:32:23.610Z,8.53
2019-03-28T21:34:51.889Z,9.53
2019-03-28T21:37:20.140Z,8.83
2019-03-28T21:39:48.422Z,8.75
2019-03-28T21:42:17.240Z,9.78
2019-03-28T21:44:45.520Z,8.73
2019-03-28T21:47:13.773Z,9.45
2019-03-28T21:49:42.049Z,9.35
2019-03-28T21:52:11.084Z,10.32
2019-03-28T21:54:39.354Z,9.40
2019-03-28T21:57:07.605Z,9.50
2019-03-28T21:59:35.889Z,10.40
2019-03-28T22:02:04.146Z,10.35
2019-03-28T22:04:32.453Z,9.43
2019-03-28T22:07:00.715Z,10.63
2019-03-28T22:09:28.966Z,9.98
2019-03-28T22:12:00.469Z,11.08
2019-03-28T22:14:27.241Z,10.00
2019-03-28T22:16:55.510Z,9.60
2019-03-28T22:19:24.012Z,9.38
2019-03-28T22:21:52.294Z,10.15
2019-03-28T22:24:20.556Z,10.63
2019-03-28T22:26:48.840Z,9.45
2019-03-28T22:29:17.364Z,9.48
2019-03-28T22:31:45.640Z,9.80
2019-03-28T22:34:13.892Z,9.70
2019-03-28T22:36:56.258Z,8.88
2019-03-28T22:39:12.784Z,9.73
2019-03-28T22:41:41.101Z,9.58
2019-03-28T22:44:09.353Z,9.85
2019-03-28T22:46:39.794Z,9.18
2019-03-28T22:49:08.375Z,10.18
2019-03-28T22:51:36.649Z,9.85
2019-03-28T22:54:04.974Z,10.32
2019-03-28T22:56:33.265Z,9.98
2019-03-28T22:59:01.508Z,10.93
2019-03-28T23:01:29.786Z,10.55
2019-03-28T23:03:58.372Z,10.20
2019-03-28T23:06:26.718Z,10.00
2019-03-28T23:08:54.979Z,10.90
2019-03-28T23:11:23.260Z,10.72
2019-03-28T23:13:52.837Z,10.35
2019-03-28T23:16:21.501Z,11.12
2019-03-28T23:18:49.769Z,10.65
2019-03-28T23:21:18.049Z,10.18
2019-03-28T23:23:46.305Z,11.60
2019-03-28T23:26:14.587Z,11.03
2019-03-28T23:28:42.844Z,10.72
2019-03-28T23:31:11.121Z,10.85
2019-03-28T23:33:39.380Z,10.70
2019-03-28T23:36:07.662Z,11.08
2019-03-28T23:38:35.919Z,10.78
2019-03-28T23:41:04.206Z,10.82
2019-03-28T23:43:32.463Z,11.40
2019-03-28T23:46:00.748Z,10.75
2019-03-28T23:48:29.011Z,11.85
2019-03-28T23:50:57.294Z,11.60
2019-03-28T23:53:25.555Z,11.68
2019-03-28T23:55:53.832Z,12.25
2019-03-28T23:58:22.090Z,11.33
